Details for United Airlines at KLAX




Go Back


Latest METAR
Local Time

KLAX 241353Z 07003KT 10SM CLR 06/M07 A3033 RMK AO2 SLP268 T00611072

24/02/2018, 06:03:58

Description
Results
United Airlines Logo
Number of Pilots based at KLAX
0 Pilots Based here
Number of United Airlines Flights Departed from KLAX
1 Flights Departed
Number of United Airlines Flights Arrived at KLAX
0 Flights Arrived
Number of United Airlines Schedules Departing from KLAX
325 Schedules
Number of United Airlines Schedules Arriving at KLAX
340 Schedules
Number of United Airlines Schedules Departing from KLAX availible today
136 Schedules Today
Number of United Airlines Schedules Arriving at KLAX availible today
132 Schedules Today
Average Landing Rate at KLAX
-253 fpm
United Airlines Average Landing Rate at KLAX
0 fpm
Total Fuel Purchased at KLAX by United Airlines
2,664.86 kgs / 5,874.95 lbs

Pilots Based at KLAX


Pilot ID
Pilot Name
Pilot Rank
No. of Flights
No. of Flying Hours
There are no pilots assigned to this hub!   Will you be the first?
Content